ADDS METAR Data INFO
IDs: Format: Raw Decoded Include TAF

Data at: 0341 UTC 19 Jul 2018

KBLH 190252Z AUTO 19012KT 10SM CLR 37/20 A2985 RMK AO2 SLP100 T03720200 55000
KBLH 190152Z AUTO 20012KT 10SM CLR 38/19 A2985 RMK AO2 SLP100 T03830194
KBLH 190052Z AUTO 19011KT 10SM CLR 39/19 A2985 RMK AO2 SLP099 T03890189
KBLH 182352Z AUTO 17013G17KT 10SM CLR 39/19 A2985 RMK AO2 SLP100 T03890194 10389 20339 58026
KBLH 182252Z AUTO 16008G17KT 10SM CLR 38/19 A2988 RMK AO2 SLP109 T03780194
KBLH 182152Z AUTO 17010KT 10SM CLR 37/19 A2990 RMK AO2 SLP119 T03720194
KBLH 182052Z AUTO 17012KT 10SM CLR 37/20 A2993 RMK AO2 SLP127 T03670200 58022
KBLH 181952Z AUTO 19013KT 10SM CLR 36/19 A2997 RMK AO2 SLP140 T03560194
KBLH 181852Z AUTO 17013KT 10SM CLR 34/21 A2998 RMK AO2 SLP145 T03440206
KBLH 181752Z AUTO 00000KT 10SM CLR 34/19 A3000 RMK AO2 SLP150 T03390194 10344 20272 53000
KBLH 181652Z AUTO 20007KT 10SM CLR 33/21 A2999 RMK AO2 SLP149 T03280206
KBLH 181552Z AUTO 21014KT 10SM CLR 32/22 A2999 RMK AO2 SLP149 T03170217
KBLH 181452Z AUTO 18016KT 10SM CLR 29/23 A2999 RMK AO2 SLP149 T02940228 53020
KBLH 181352Z AUTO 17007KT 10SM CLR 28/24 A2997 RMK AO2 SLP141 T02780244
KBLH 181252Z AUTO 17008KT 9SM CLR 28/24 A2994 RMK AO2 SLP129 T02780244
KBLH 181152Z AUTO 20004KT 10SM CLR 28/24 A2994 RMK AO2 RAE05 SLP129 P0000 60005 70005 T02780244 10367 20267 55009
KBLH 181052Z AUTO 20009KT 10SM -RA FEW060 FEW100 28/24 A2993 RMK AO2 TSB03E18 SLP126 P0004 T02780244
KBLH 181024Z AUTO 18005KT 10SM -RA FEW120 28/25 A2993 RMK AO2 TSB03E18 PRESRR P0002 T02830250
KBLH 181009Z AUTO 27010KT 9SM -TSRA FEW110 27/24 A2989 RMK AO2 LTG DSNT W AND NW TSB03 PRESFR P0001 T02670244
KBLH 180952Z AUTO 28006KT 10SM -RA CLR 27/24 A2992 RMK AO2 LTG DSNT W AND NW TSB33E48 PRESFR SLP124 P0001 T02670239
KBLH 180939Z AUTO 35010KT 10SM -TSRA CLR 27/23 A2995 RMK AO2 LTG DSNT W-NE TSB33 P0000 T02670233
KBLH 180852Z AUTO 02011KT 10SM VCTS -RA FEW090 SCT110 30/23 A2996 RMK AO2 PK WND 06040/0832 WSHFT 0829 LTG DSNT NW-E RAB20 SLP139 P0000 60000 T03000233 53046
KBLH 180844Z AUTO 06014G29KT 5SM VCTS -RA SCT100 SCT120 29/24 A2997 RMK AO2 PK WND 06040/0832 WSHFT 0829 LTG DSNT NW-E RAB20 P0000 T02890239
KBLH 180834Z AUTO 05029G40KT 1 1/4SM VCTS -RA FEW018 FEW110 32/22 A2996 RMK AO2 PK WND 06040/0832 LTG DSNT NW-E RAB20 PRESRR P0000 T03170217
KBLH 180824Z AUTO 16008KT 10SM VCTS -RA FEW110 33/20 A2991 RMK AO2 LTG DSNT NW-NE RAB20 P0000 T03280200
KBLH 180752Z AUTO 16011KT 10SM CLR 34/18 A2988 RMK AO2 LTG DSNT NE AND E SLP111 T03440178 404110317
KBLH 180652Z AUTO 20012KT 10SM CLR 36/19 A2985 RMK AO2 SLP099 T03560189
KBLH 180552Z AUTO 20013KT 10SM CLR 37/19 A2983 RMK AO2 SLP091 T03670189 10411 20367 50012
KBLH 180452Z AUTO 20016KT 10SM CLR 38/18 A2984 RMK AO2 SLP095 T03780183
KBLH 180352Z AUTO 18011KT 10SM CLR 38/19 A2981 RMK AO2 SLP086 T03780194
KBLH 180252Z AUTO 17009KT 10SM CLR 38/20 A2979 RMK AO2 SLP079 T03830200 55001
KBLH 180152Z AUTO 17012KT 10SM FEW110 40/19 A2977 RMK AO2 SLP073 T04000189
KBLH 180052Z AUTO 17013KT 10SM CLR 41/19 A2977 RMK AO2 SLP073 T04060189
KBLH 172352Z AUTO 20008KT 10SM FEW120 41/19 A2979 RMK AO2 SLP080 T04110189 10411 20361 58023
KBLH 172252Z AUTO 17011KT 10SM CLR 41/19 A2982 RMK AO2 SLP088 T04060194
KBLH 172152Z AUTO 18014KT 10SM CLR 39/20 A2985 RMK AO2 SLP098 T03940200
KBLH 172052Z AUTO 17017KT 10SM CLR 40/21 A2986 RMK AO2 SLP103 T04000206 58017
KBLH 171952Z AUTO 16014G21KT 10SM CLR 38/20 A2988 RMK AO2 SLP110 T03830200
KBLH 171852Z AUTO 17016KT 10SM CLR 37/20 A2990 RMK AO2 SLP116 T03720200
KBLH 171752Z AUTO 17014KT 10SM CLR 37/19 A2991 RMK AO2 SLP120 T03670189 10367 20317 50002
KBLH 171652Z AUTO 18012KT 10SM CLR 36/18 A2992 RMK AO2 SLP123 T03560183
KBLH 171552Z AUTO 19011KT 10SM CLR 34/18 A2992 RMK AO2 SLP123 T03440183